Time;durP1;ratioP1;P1;durP2;ratioP2;P2;SDS_P1;SDS_P2;PMS_P1;PMS_P2;Temp;Humidity;BMP_temperature;BMP_pressure;BME280_temperature;BME280_humidity;BME280_pressure;Samples;Min_cycle;Max_cycle;Signal;HPM_P1;HPM_P2
2022/12/26 03:14:28;;;;;;;11.50;10.70;;;9.40;99.90;;;;;;4853993;29;20222;-79
2022/12/26 03:20:00;;;;;;;11.10;10.40;;;9.40;99.90;;;;;;4850066;29;20655;-80
2022/12/26 03:22:32;;;;;;;11.43;10.73;;;9.40;99.90;;;;;;4851053;29;20222;-80
2022/12/26 03:27:46;;;;;;;11.13;10.43;;;9.40;99.90;;;;;;4844322;29;20213;-80
2022/12/26 03:32:58;;;;;;;11.80;11.10;;;9.50;99.90;;;;;;4848363;29;20214;-81
2022/12/26 03:35:28;;;;;;;11.63;10.93;;;9.50;99.90;;;;;;4848893;29;20209;-81
2022/12/26 03:37:59;;;;;;;11.43;10.73;;;9.50;99.90;;;;;;4856264;29;20186;-81
2022/12/26 04:41:34;;;;;;;11.50;10.80;;;9.60;99.90;;;;;;4850278;29;20313;-83
2022/12/26 04:46:27;;;;;;;12.17;11.30;;;9.80;99.90;;;;;;4847654;29;20209;-81
2022/12/26 04:51:39;;;;;;;11.70;11.00;;;9.90;99.90;;;;;;4844390;29;20279;-81
2022/12/26 04:54:07;;;;;;;11.83;11.00;;;9.90;99.90;;;;;;4848425;29;20309;-81
2022/12/26 04:56:34;;;;;;;11.83;11.03;;;9.90;99.90;;;;;;4852431;29;20262;-81
2022/12/26 04:59:02;;;;;;;11.97;11.27;;;9.90;99.90;;;;;;4853339;29;20675;-81
2022/12/26 05:09:45;;;;;;;12.20;11.40;;;9.90;99.90;;;;;;4852003;29;20282;-81
2022/12/26 05:12:12;;;;;;;12.73;11.83;;;9.90;99.90;;;;;;4854475;29;20222;-82
2022/12/26 05:14:40;;;;;;;11.80;11.10;;;10.00;99.90;;;;;;4858377;29;20225;-82
2022/12/26 05:30:56;;;;;;;11.87;11.17;;;10.10;99.90;;;;;;4847183;29;20332;-80
2022/12/26 05:36:08;;;;;;;12.50;11.70;;;10.10;99.90;;;;;;4851343;29;20215;-81
2022/12/26 05:38:35;;;;;;;12.60;11.67;;;10.10;99.90;;;;;;4855143;29;20266;-81
2022/12/26 05:41:02;;;;;;;12.07;11.37;;;10.10;99.90;;;;;;4853946;29;20226;-82
2022/12/26 05:43:29;;;;;;;11.77;11.07;;;10.10;99.90;;;;;;4849651;29;20247;-81
2022/12/26 05:45:58;;;;;;;12.10;11.30;;;10.20;99.90;;;;;;4854507;29;20272;-80
2022/12/26 05:48:24;;;;;;;12.27;11.40;;;10.10;99.90;;;;;;4854390;29;20214;-80
2022/12/26 05:50:51;;;;;;;11.80;11.10;;;10.10;99.90;;;;;;4858111;29;20699;-80
2022/12/26 05:53:18;;;;;;;12.27;11.53;;;10.20;99.90;;;;;;4868611;29;20244;-76
2022/12/26 05:55:45;;;;;;;12.23;11.53;;;10.20;99.90;;;;;;4849528;29;20211;-76
2022/12/26 05:58:12;;;;;;;11.97;11.27;;;10.10;99.90;;;;;;4852036;29;20201;-82
2022/12/26 06:00:39;;;;;;;12.07;11.37;;;10.10;99.90;;;;;;4852170;29;20198;-80
2022/12/26 06:03:07;;;;;;;12.00;11.30;;;10.10;99.90;;;;;;4855459;29;20278;-81
2022/12/26 06:05:34;;;;;;;12.07;11.27;;;10.10;99.90;;;;;;4852028;29;20198;-80
2022/12/26 06:08:01;;;;;;;12.10;11.30;;;10.10;99.90;;;;;;4849318;29;20238;-80
2022/12/26 06:10:28;;;;;;;11.80;11.10;;;10.10;99.90;;;;;;4849007;29;20199;-79
2022/12/26 06:12:55;;;;;;;12.27;11.57;;;10.10;99.90;;;;;;4850802;29;20230;-83
2022/12/26 06:15:22;;;;;;;12.10;11.40;;;10.10;99.90;;;;;;4851585;29;20219;-81
2022/12/26 06:17:49;;;;;;;11.77;11.07;;;10.10;99.90;;;;;;4851497;29;20622;-82
2022/12/26 06:20:17;;;;;;;11.87;11.17;;;10.10;99.90;;;;;;4851809;29;20562;-83
2022/12/26 06:22:44;;;;;;;11.80;11.10;;;10.10;99.90;;;;;;4852558;29;20235;-81
2022/12/26 06:25:11;;;;;;;12.43;11.63;;;10.10;99.90;;;;;;4848540;29;20243;-82
2022/12/26 06:27:37;;;;;;;11.87;11.17;;;10.10;99.90;;;;;;4851660;29;20628;-80
2022/12/26 06:30:05;;;;;;;12.30;11.60;;;10.10;99.90;;;;;;4852270;29;20267;-79
2022/12/26 06:32:33;;;;;;;12.87;11.97;;;10.00;99.90;;;;;;4857162;29;20703;-80
2022/12/26 06:35:00;;;;;;;12.33;11.43;;;10.00;99.90;;;;;;4854629;29;20289;-80
2022/12/26 06:37:29;;;;;;;12.00;11.30;;;10.00;99.90;;;;;;4844976;29;20302;-84
2022/12/26 06:39:56;;;;;;;12.00;11.30;;;10.00;99.90;;;;;;4841077;29;20235;-80
2022/12/26 06:42:23;;;;;;;12.50;11.60;;;10.00;99.90;;;;;;4847448;29;20507;-79
2022/12/26 06:44:50;;;;;;;12.40;11.60;;;10.00;99.90;;;;;;4841031;29;20202;-79
2022/12/26 06:47:17;;;;;;;12.30;11.40;;;10.00;99.90;;;;;;4840982;29;20261;-79
2022/12/26 06:49:43;;;;;;;12.37;11.60;;;10.00;99.90;;;;;;4840128;29;20207;-80
2022/12/26 06:52:12;;;;;;;12.60;11.80;;;10.00;99.90;;;;;;4849135;29;20548;-79
2022/12/26 06:54:41;;;;;;;12.77;11.97;;;10.00;99.90;;;;;;4835948;29;20257;-79
2022/12/26 06:57:07;;;;;;;12.67;11.77;;;10.00;99.90;;;;;;4841110;29;20227;-80
2022/12/26 06:59:34;;;;;;;13.60;12.80;;;10.00;99.90;;;;;;4842105;29;20227;-80
2022/12/26 07:02:01;;;;;;;13.17;12.37;;;9.90;99.90;;;;;;4842375;29;20290;-81
2022/12/26 07:04:28;;;;;;;13.03;12.23;;;9.90;99.90;;;;;;4839627;29;20259;-80
2022/12/26 07:06:55;;;;;;;12.90;12.10;;;9.90;99.90;;;;;;4854553;29;20211;-81
2022/12/26 07:09:21;;;;;;;13.10;12.30;;;9.90;99.90;;;;;;4843099;29;20804;-80
2022/12/26 07:11:50;;;;;;;12.97;12.17;;;9.90;99.90;;;;;;4850660;29;20229;-82
2022/12/26 07:14:17;;;;;;;12.90;12.10;;;9.90;99.90;;;;;;4853560;29;20318;-80
2022/12/26 07:16:45;;;;;;;13.00;12.20;;;9.80;99.90;;;;;;4843792;29;20691;-80
2022/12/26 07:19:13;;;;;;;12.60;11.90;;;9.80;99.90;;;;;;4840305;29;20214;-79
2022/12/26 07:21:40;;;;;;;13.10;12.30;;;9.80;99.90;;;;;;4842024;29;20267;-79
2022/12/26 07:24:07;;;;;;;12.93;12.13;;;9.80;99.90;;;;;;4845101;29;20692;-79
2022/12/26 07:26:34;;;;;;;12.57;11.80;;;9.90;99.90;;;;;;4841642;29;20218;-79
2022/12/26 07:29:02;;;;;;;12.70;11.87;;;9.90;99.90;;;;;;4843408;29;20214;-80
2022/12/26 07:31:29;;;;;;;13.10;12.27;;;9.90;99.90;;;;;;4843559;29;20651;-82
2022/12/26 07:33:56;;;;;;;12.40;11.70;;;9.90;99.90;;;;;;4842548;29;20255;-77
2022/12/26 07:36:24;;;;;;;13.23;12.33;;;9.80;99.90;;;;;;4854427;29;20297;-80
2022/12/26 07:38:51;;;;;;;12.80;11.83;;;9.80;99.90;;;;;;4841434;29;20214;-77
2022/12/26 07:44:04;;;;;;;12.30;11.50;;;9.80;99.90;;;;;;4853411;29;20201;-78
2022/12/26 07:46:31;;;;;;;12.70;11.83;;;9.80;99.90;;;;;;4843877;29;20199;-80
2022/12/26 07:48:58;;;;;;;12.67;11.83;;;9.90;99.90;;;;;;4841771;29;20207;-78
2022/12/26 07:51:25;;;;;;;12.77;11.90;;;9.80;99.90;;;;;;4845958;29;20225;-81
2022/12/26 07:53:52;;;;;;;13.00;12.03;;;9.90;99.90;;;;;;4846843;29;20266;-80
2022/12/26 07:56:19;;;;;;;12.70;11.90;;;9.90;99.90;;;;;;4840673;29;20211;-79
2022/12/26 07:58:48;;;;;;;12.40;11.50;;;9.90;99.90;;;;;;4847428;29;20225;-78
2022/12/26 08:01:16;;;;;;;12.57;11.67;;;10.00;99.90;;;;;;4856503;29;20734;-81
2022/12/26 08:03:43;;;;;;;12.73;11.93;;;10.00;99.90;;;;;;4841518;29;20251;-84
2022/12/26 08:06:11;;;;;;;12.47;11.57;;;10.10;99.90;;;;;;4837068;29;20210;-81
2022/12/26 08:08:38;;;;;;;13.30;12.40;;;10.10;99.90;;;;;;4840879;29;20198;-79
2022/12/26 08:11:06;;;;;;;12.67;11.80;;;10.10;99.90;;;;;;4842282;29;20226;-80
2022/12/26 08:13:34;;;;;;;12.57;11.77;;;10.20;99.90;;;;;;4846583;29;20293;-80
2022/12/26 08:16:05;;;;;;;12.87;11.90;;;10.20;99.90;;;;;;4838427;29;20258;-78
2022/12/26 08:18:34;;;;;;;12.80;12.00;;;10.20;99.90;;;;;;4848284;29;20602;-81
2022/12/26 08:21:01;;;;;;;12.97;12.10;;;10.20;99.90;;;;;;4842058;29;20281;-81
2022/12/26 08:23:28;;;;;;;12.87;11.97;;;10.20;99.90;;;;;;4840073;29;20232;-80
2022/12/26 08:25:55;;;;;;;12.73;11.73;;;10.30;99.90;;;;;;4841269;29;20255;-80
2022/12/26 08:28:21;;;;;;;13.03;12.13;;;10.30;99.90;;;;;;4850743;29;20266;-81
2022/12/26 08:30:49;;;;;;;13.03;12.23;;;10.30;99.90;;;;;;4848811;29;20325;-82
2022/12/26 08:33:16;;;;;;;13.37;12.57;;;10.30;99.90;;;;;;4843489;29;20214;-78
2022/12/26 08:35:45;;;;;;;14.20;13.30;;;10.30;99.90;;;;;;4844187;29;20222;-80
2022/12/26 08:38:11;;;;;;;13.17;12.37;;;10.30;99.90;;;;;;4844585;29;20290;-82
2022/12/26 08:40:40;;;;;;;12.67;11.87;;;10.30;99.90;;;;;;4843457;29;20226;-79
2022/12/26 08:43:06;;;;;;;13.50;12.60;;;10.30;99.90;;;;;;4843912;29;20214;-78
2022/12/26 08:45:33;;;;;;;13.13;12.33;;;10.30;99.90;;;;;;4848477;29;20233;-77
2022/12/26 08:48:01;;;;;;;13.60;12.70;;;10.20;99.90;;;;;;4856161;29;20237;-77
2022/12/26 08:50:29;;;;;;;13.67;12.77;;;10.20;99.90;;;;;;4847971;29;20259;-79
2022/12/26 08:52:57;;;;;;;13.13;12.33;;;10.20;99.90;;;;;;4846719;29;20737;-79
2022/12/26 08:55:24;;;;;;;13.77;12.77;;;10.10;99.90;;;;;;4850593;29;20215;-81
2022/12/26 08:57:51;;;;;;;13.90;12.93;;;10.10;99.90;;;;;;4860674;29;20220;-79
2022/12/26 09:00:20;;;;;;;13.10;12.10;;;10.00;99.90;;;;;;4843599;29;20234;-81
2022/12/26 09:02:48;;;;;;;12.97;12.07;;;9.90;99.90;;;;;;4846042;29;20296;-78
2022/12/26 09:05:15;;;;;;;13.10;12.13;;;9.90;99.90;;;;;;4840562;29;20563;-79
2022/12/26 09:07:41;;;;;;;13.67;12.77;;;9.90;99.90;;;;;;4838626;29;20264;-82
2022/12/26 09:10:11;;;;;;;13.57;12.57;;;9.90;99.90;;;;;;4839124;29;20286;-80
2022/12/26 09:12:38;;;;;;;14.40;13.10;;;9.80;99.90;;;;;;4848750;29;20259;-81
2022/12/26 09:15:05;;;;;;;13.90;12.90;;;9.80;99.90;;;;;;4850117;29;20224;-79
2022/12/26 09:17:32;;;;;;;14.50;13.50;;;9.80;99.90;;;;;;4850607;29;20207;-77
2022/12/26 09:19:59;;;;;;;14.13;13.13;;;9.80;99.90;;;;;;4850286;29;20585;-78
2022/12/26 09:25:12;;;;;;;15.20;14.10;;;9.70;99.90;;;;;;4850461;29;20197;-78
2022/12/26 09:27:38;;;;;;;17.10;15.90;;;9.70;99.90;;;;;;4850476;29;20650;-79
2022/12/26 09:30:06;;;;;;;14.83;13.83;;;9.60;99.90;;;;;;4857393;29;20207;-79
2022/12/26 09:32:33;;;;;;;16.73;15.43;;;9.60;99.90;;;;;;4834584;29;20283;-80
2022/12/26 09:35:00;;;;;;;16.87;15.47;;;9.60;99.90;;;;;;4842100;29;20227;-80
2022/12/26 09:37:27;;;;;;;14.70;13.70;;;9.70;99.90;;;;;;4857346;29;20237;-79
2022/12/26 09:39:54;;;;;;;14.70;13.60;;;9.70;99.90;;;;;;4843005;29;20261;-79
2022/12/26 09:42:30;;;;;;;14.43;13.20;;;9.80;99.90;;;;;;4852455;29;20231;-80
2022/12/26 09:45:04;;;;;;;13.33;12.33;;;9.90;99.90;;;;;;4853510;29;20690;-79
2022/12/26 09:47:33;;;;;;;14.10;13.20;;;10.00;99.90;;;;;;4842182;29;20210;-79
2022/12/26 09:50:07;;;;;;;13.87;12.87;;;10.10;99.90;;;;;;4845446;29;20219;-79
2022/12/26 09:52:46;;;;;;;13.20;12.40;;;10.10;99.90;;;;;;4851935;29;20706;-79
2022/12/26 09:55:35;;;;;;;13.43;12.50;;;10.10;99.90;;;;;;4848951;29;20663;-79
2022/12/26 09:58:15;;;;;;;13.03;12.13;;;10.20;99.90;;;;;;4844779;29;20298;-79
2022/12/26 10:00:48;;;;;;;13.60;12.60;;;10.10;99.90;;;;;;4845628;29;20214;-78
2022/12/26 10:03:15;;;;;;;14.00;12.90;;;10.10;99.90;;;;;;4847473;29;20267;-78
2022/12/26 10:05:57;;;;;;;13.50;12.50;;;10.10;99.90;;;;;;4854611;29;20560;-77
2022/12/26 10:08:33;;;;;;;13.47;12.47;;;10.10;99.90;;;;;;4848281;29;20560;-79
2022/12/26 10:11:03;;;;;;;12.87;11.97;;;10.10;99.90;;;;;;4843725;29;20238;-79
2022/12/26 10:13:38;;;;;;;14.03;12.97;;;10.10;99.90;;;;;;4851305;29;20213;-77
2022/12/26 10:16:10;;;;;;;13.43;12.53;;;10.10;99.90;;;;;;4848347;29;20451;-77
2022/12/26 10:18:53;;;;;;;13.70;12.80;;;10.20;99.90;;;;;;4841478;29;20212;-77
2022/12/26 10:21:33;;;;;;;13.90;12.90;;;10.20;99.90;;;;;;4850570;29;20227;-76
2022/12/26 10:24:04;;;;;;;14.47;13.20;;;10.20;99.90;;;;;;4861096;29;20211;-77
2022/12/26 10:26:34;;;;;;;14.10;13.00;;;10.20;99.90;;;;;;4857846;29;20219;-77
2022/12/26 10:29:11;;;;;;;14.10;13.20;;;10.20;99.90;;;;;;4851068;29;20256;-77
2022/12/26 10:31:46;;;;;;;13.77;12.87;;;10.30;99.90;;;;;;4843319;29;20223;-77
2022/12/26 10:34:23;;;;;;;14.17;13.20;;;10.30;99.90;;;;;;4852047;29;20206;-77
2022/12/26 10:36:51;;;;;;;13.57;12.67;;;10.30;99.90;;;;;;4845868;29;20672;-81
2022/12/26 10:39:26;;;;;;;13.63;12.63;;;10.30;99.90;;;;;;4852632;29;20199;-79
2022/12/26 10:41:56;;;;;;;13.53;12.63;;;10.30;99.90;;;;;;4849521;29;20762;-77
2022/12/26 10:44:25;;;;;;;13.53;12.63;;;10.30;99.90;;;;;;4845783;29;20258;-77
2022/12/26 10:47:13;;;;;;;14.60;13.40;;;10.30;99.90;;;;;;4852850;29;20270;-77
2022/12/26 10:49:48;;;;;;;14.13;13.17;;;10.40;99.90;;;;;;4849795;29;20631;-77
2022/12/26 10:52:16;;;;;;;13.27;12.47;;;10.40;99.90;;;;;;4847671;29;20222;-77
2022/12/26 10:54:45;;;;;;;13.83;12.90;;;10.40;99.90;;;;;;4848406;29;20290;-77
2022/12/26 10:57:12;;;;;;;13.63;12.80;;;10.40;99.90;;;;;;4849857;29;20231;-77
2022/12/26 10:59:45;;;;;;;13.93;13.03;;;10.40;99.90;;;;;;4855355;29;20226;-77
2022/12/26 11:02:21;;;;;;;13.80;12.90;;;10.40;99.90;;;;;;4856407;29;20230;-77
2022/12/26 11:05:04;;;;;;;13.53;12.50;;;10.40;99.90;;;;;;4848782;29;20279;-78
2022/12/26 11:07:35;;;;;;;13.63;12.73;;;10.40;99.90;;;;;;4848134;29;20211;-78
2022/12/26 11:10:03;;;;;;;12.97;12.17;;;10.50;99.90;;;;;;4851670;29;20255;-77
2022/12/26 11:12:39;;;;;;;13.93;13.03;;;10.50;99.90;;;;;;4839769;29;20226;-78
2022/12/26 11:15:21;;;;;;;13.73;12.83;;;10.50;99.90;;;;;;4850594;29;20226;-78
2022/12/26 11:17:52;;;;;;;14.83;13.60;;;10.50;99.90;;;;;;4850430;29;20218;-77
2022/12/26 11:20:26;;;;;;;14.57;13.57;;;10.50;99.90;;;;;;4851907;29;20733;-77
2022/12/26 11:22:54;;;;;;;14.83;13.67;;;10.50;99.90;;;;;;4844521;29;20278;-78
2022/12/26 11:25:23;;;;;;;15.40;14.30;;;10.60;99.90;;;;;;4851303;29;20202;-79
2022/12/26 11:27:53;;;;;;;16.37;15.07;;;10.60;99.90;;;;;;4848324;29;20207;-79
2022/12/26 11:30:25;;;;;;;15.57;14.47;;;10.70;99.90;;;;;;4843641;29;20682;-78
2022/12/26 11:33:05;;;;;;;14.33;13.20;;;10.80;99.90;;;;;;4842963;29;20215;-78
2022/12/26 11:35:36;;;;;;;14.40;13.47;;;10.80;99.90;;;;;;4863094;29;20223;-80
2022/12/26 11:38:05;;;;;;;14.33;13.23;;;10.80;99.90;;;;;;4844260;29;20207;-80
2022/12/26 11:40:36;;;;;;;14.00;13.10;;;10.90;99.90;;;;;;4849174;29;20200;-79
2022/12/26 11:43:06;;;;;;;13.90;12.90;;;10.90;99.90;;;;;;4845389;29;20213;-78
2022/12/26 11:45:42;;;;;;;13.10;12.30;;;10.90;99.90;;;;;;4848483;29;20207;-79
2022/12/26 11:48:19;;;;;;;12.60;11.80;;;10.90;99.90;;;;;;4851353;29;20210;-78
2022/12/26 11:50:47;;;;;;;13.03;12.17;;;10.90;99.90;;;;;;4850309;29;20227;-78
2022/12/26 11:53:17;;;;;;;12.50;11.70;;;10.90;99.90;;;;;;4850566;29;20199;-79
2022/12/26 11:55:44;;;;;;;12.57;11.77;;;10.90;99.90;;;;;;4862863;29;20768;-77
2022/12/26 11:58:18;;;;;;;12.23;11.53;;;10.90;99.90;;;;;;4846653;29;20215;-78
2022/12/26 12:01:08;;;;;;;12.00;11.20;;;10.80;99.90;;;;;;4848163;29;20246;-78
2022/12/26 12:03:39;;;;;;;11.57;10.87;;;10.80;99.90;;;;;;4847404;29;20214;-79
2022/12/26 12:06:20;;;;;;;11.30;10.60;;;10.80;99.90;;;;;;4850899;29;20207;-78
2022/12/26 12:08:56;;;;;;;11.40;10.70;;;10.70;99.90;;;;;;4847636;29;20229;-78
2022/12/26 12:11:31;;;;;;;11.30;10.70;;;10.70;99.90;;;;;;4844332;29;20331;-77
2022/12/26 12:14:28;;;;;;;10.90;10.30;;;10.70;99.90;;;;;;4851835;29;20270;-77
2022/12/26 12:17:06;;;;;;;10.90;10.30;;;10.80;99.90;;;;;;4848362;29;20230;-77
2022/12/26 12:19:47;;;;;;;11.73;10.93;;;10.70;99.90;;;;;;4836723;29;20207;-82
2022/12/26 12:22:40;;;;;;;11.20;10.50;;;10.70;99.90;;;;;;4840774;29;20223;-79
2022/12/26 12:25:41;;;;;;;11.20;10.60;;;10.70;99.90;;;;;;4845800;29;20205;-79
2022/12/26 12:28:26;;;;;;;12.00;11.30;;;10.70;99.90;;;;;;4822181;29;20205;-79
2022/12/26 12:31:01;;;;;;;11.93;11.23;;;10.60;99.90;;;;;;4844595;29;20256;-79
2022/12/26 12:33:42;;;;;;;11.70;11.00;;;10.60;99.90;;;;;;4848763;29;20496;-79
2022/12/26 12:36:13;;;;;;;11.13;10.40;;;10.60;99.90;;;;;;4849690;29;20222;-79
2022/12/26 12:38:55;;;;;;;11.80;11.10;;;10.60;99.90;;;;;;4850874;29;20212;-80
2022/12/26 12:41:41;;;;;;;11.80;11.10;;;10.50;99.90;;;;;;4848792;29;20234;-79
2022/12/26 12:44:15;;;;;;;11.90;11.10;;;10.50;99.90;;;;;;4834714;29;20214;-79
2022/12/26 12:46:54;;;;;;;12.03;11.33;;;10.50;99.90;;;;;;4849341;29;20223;-79
2022/12/26 12:49:45;;;;;;;11.63;10.93;;;10.40;99.90;;;;;;4845459;29;20695;-78
2022/12/26 12:52:26;;;;;;;11.13;10.43;;;10.40;99.90;;;;;;4846609;29;20219;-79
2022/12/26 12:55:28;;;;;;;11.50;10.80;;;10.50;99.90;;;;;;4845820;29;20259;-79
2022/12/26 12:58:02;;;;;;;11.30;10.70;;;10.50;99.90;;;;;;4848376;29;20263;-79
2022/12/26 13:00:37;;;;;;;11.33;10.63;;;10.40;99.90;;;;;;4851866;29;20258;-79
2022/12/26 13:03:12;;;;;;;11.40;10.60;;;10.50;99.90;;;;;;4837710;29;20653;-78
2022/12/26 13:05:46;;;;;;;11.30;10.60;;;10.50;99.90;;;;;;4849453;29;20196;-79
2022/12/26 13:08:18;;;;;;;11.60;10.90;;;10.50;99.90;;;;;;4848107;29;20268;-78
2022/12/26 13:10:50;;;;;;;11.70;11.00;;;10.50;99.90;;;;;;4838596;29;20620;-79
2022/12/26 13:13:33;;;;;;;11.50;10.83;;;10.50;99.90;;;;;;4842000;29;20196;-78
2022/12/26 13:16:06;;;;;;;11.23;10.63;;;10.50;99.90;;;;;;4839137;29;20224;-79
2022/12/26 13:18:37;;;;;;;11.30;10.60;;;10.50;99.90;;;;;;4844249;29;20253;-78
2022/12/26 13:21:08;;;;;;;11.37;10.77;;;10.50;99.90;;;;;;4868385;29;20237;-79
2022/12/26 13:26:29;;;;;;;11.53;10.93;;;10.50;99.90;;;;;;4853625;29;20200;-79
2022/12/26 13:29:05;;;;;;;11.60;10.90;;;10.50;99.90;;;;;;4844309;29;20284;-79
2022/12/26 13:31:36;;;;;;;11.80;11.10;;;10.50;99.90;;;;;;4854794;29;20250;-79
2022/12/26 13:34:04;;;;;;;11.90;11.20;;;10.50;99.90;;;;;;4853692;29;20208;-79
2022/12/26 13:36:41;;;;;;;12.07;11.37;;;10.50;99.90;;;;;;4842801;29;20228;-79
2022/12/26 13:39:39;;;;;;;11.90;11.30;;;10.50;99.90;;;;;;4848647;29;20202;-81
2022/12/26 13:45:57;;;;;;;11.37;10.67;;;10.40;99.90;;;;;;4847948;29;20287;-78
2022/12/26 13:49:07;;;;;;;11.20;10.57;;;10.40;99.90;;;;;;4850719;29;20202;-79
2022/12/26 13:51:51;;;;;;;11.50;10.90;;;10.50;99.90;;;;;;4838176;29;20251;-80
2022/12/26 13:54:19;;;;;;;11.40;10.80;;;10.50;99.90;;;;;;4845211;29;20215;-80
2022/12/26 13:57:07;;;;;;;11.87;11.17;;;10.50;99.90;;;;;;4854718;29;20253;-81
2022/12/26 13:59:39;;;;;;;11.20;10.57;;;10.60;99.90;;;;;;4839817;29;20230;-80
2022/12/26 14:02:22;;;;;;;11.20;10.60;;;10.60;99.90;;;;;;4853231;29;20230;-80
2022/12/26 14:05:00;;;;;;;11.63;11.03;;;10.50;99.90;;;;;;4854424;29;20207;-80
2022/12/26 14:07:39;;;;;;;11.60;10.90;;;10.50;99.90;;;;;;4843288;29;20732;-80
2022/12/26 14:10:15;;;;;;;11.50;10.90;;;10.40;99.90;;;;;;4852922;29;20202;-79
2022/12/26 14:12:51;;;;;;;11.53;10.93;;;10.40;99.90;;;;;;4847743;29;20718;-79
2022/12/26 14:15:28;;;;;;;11.60;10.97;;;10.40;99.90;;;;;;4856742;29;20218;-79
2022/12/26 14:18:10;;;;;;;11.73;11.03;;;10.40;99.90;;;;;;4857851;29;20207;-78
2022/12/26 14:20:50;;;;;;;11.60;10.90;;;10.30;99.90;;;;;;4851897;29;20212;-77
2022/12/26 14:23:29;;;;;;;11.73;10.97;;;10.30;99.90;;;;;;4849580;29;20211;-80
2022/12/26 14:26:03;;;;;;;11.10;10.50;;;10.30;99.90;;;;;;4850828;29;20235;-79
2022/12/26 14:28:46;;;;;;;11.43;10.83;;;10.20;99.90;;;;;;4856424;29;20226;-78
2022/12/26 14:31:20;;;;;;;11.63;11.03;;;10.20;99.90;;;;;;4850753;29;20652;-81
2022/12/26 15:12:45;;;;;;;11.63;11.03;;;9.90;99.90;;;;;;5058430;23;20232;-82
2022/12/26 15:15:38;;;;;;;11.90;11.30;;;9.90;99.90;;;;;;4911285;29;20205;-82
2022/12/26 15:25:16;;;;;;;11.37;10.67;;;9.90;99.90;;;;;;4922358;29;20196;-81
2022/12/26 16:49:08;;;;;;;11.10;10.50;;;9.20;99.90;;;;;;4900961;29;20204;-81
2022/12/26 16:57:23;;;;;;;11.10;10.50;;;9.10;99.90;;;;;;4907208;29;20226;-80
2022/12/26 17:45:24;;;;;;;11.10;10.50;;;9.20;99.90;;;;;;4896658;29;20200;-78
2022/12/26 18:41:22;;;;;;;11.80;11.10;;;9.70;99.90;;;;;;4917727;29;20310;-78
2022/12/26 18:43:49;;;;;;;11.73;11.00;;;9.60;99.90;;;;;;4913635;29;20717;-77
2022/12/26 18:46:19;;;;;;;11.27;10.53;;;9.40;99.90;;;;;;4915299;29;20581;-80
2022/12/26 18:48:49;;;;;;;11.10;10.50;;;9.20;99.90;;;;;;4906849;29;20240;-80
2022/12/26 18:51:18;;;;;;;11.40;10.73;;;8.90;99.90;;;;;;4905274;29;20749;-80
2022/12/26 18:53:45;;;;;;;11.43;10.63;;;8.80;99.90;;;;;;4906218;29;20218;-80
2022/12/26 18:56:18;;;;;;;11.13;10.53;;;8.60;99.90;;;;;;4905918;29;20220;-80
2022/12/26 18:58:46;;;;;;;11.30;10.50;;;8.50;99.90;;;;;;4908088;29;20196;-81
2022/12/26 19:01:16;;;;;;;11.77;11.03;;;8.40;99.90;;;;;;4906063;29;20252;-80
2022/12/26 19:03:43;;;;;;;11.20;10.60;;;8.40;99.90;;;;;;4906253;29;20272;-81
2022/12/26 19:06:17;;;;;;;11.10;10.50;;;8.30;99.90;;;;;;4902775;29;20209;-79
2022/12/26 19:08:44;;;;;;;10.97;10.37;;;8.30;99.90;;;;;;4920828;29;20786;-79
2022/12/26 19:11:13;;;;;;;11.10;10.50;;;8.30;99.90;;;;;;4903715;29;20299;-80
2022/12/26 19:13:39;;;;;;;10.90;10.30;;;8.30;99.90;;;;;;4904135;29;20203;-79
2022/12/26 19:16:36;;;;;;;11.70;11.10;;;8.20;99.90;;;;;;4904485;29;20220;-76
2022/12/26 19:19:28;;;;;;;11.10;10.50;;;8.20;99.90;;;;;;4905752;29;20630;-80
2022/12/26 19:30:13;;;;;;;11.20;10.50;;;8.20;99.90;;;;;;4903746;29;20204;-81
2022/12/26 19:32:47;;;;;;;11.40;10.80;;;8.20;99.90;;;;;;4905783;29;20223;-80
2022/12/26 19:41:15;;;;;;;11.23;10.63;;;8.00;99.90;;;;;;4910687;29;20246;-80
2022/12/26 19:49:17;;;;;;;11.93;11.23;;;8.00;99.90;;;;;;4903028;29;20200;-80
2022/12/26 19:51:44;;;;;;;11.77;11.10;;;7.90;99.90;;;;;;4899636;29;20220;-81
2022/12/26 19:54:12;;;;;;;11.60;10.90;;;7.90;99.90;;;;;;4903739;29;20208;-81
2022/12/26 19:56:39;;;;;;;12.10;11.30;;;7.80;99.90;;;;;;4895511;29;20215;-79
2022/12/26 19:59:06;;;;;;;11.80;11.00;;;7.80;99.90;;;;;;4894935;29;20215;-79
2022/12/26 20:01:36;;;;;;;12.10;11.40;;;7.80;99.90;;;;;;4895295;29;20284;-81
2022/12/26 20:04:05;;;;;;;11.63;11.00;;;7.80;99.90;;;;;;4894720;29;20255;-79
2022/12/26 20:06:34;;;;;;;11.93;11.23;;;7.80;99.90;;;;;;4895365;29;20781;-80
2022/12/26 20:09:03;;;;;;;11.90;11.20;;;7.70;99.90;;;;;;4895055;29;20603;-80
2022/12/26 20:11:33;;;;;;;11.98;11.20;;;7.70;99.90;;;;;;4858681;29;1053182;-79
2022/12/26 20:14:00;;;;;;;12.43;11.63;;;7.70;99.90;;;;;;4895743;29;20207;-79
2022/12/26 20:16:28;;;;;;;13.77;12.83;;;7.80;99.90;;;;;;4896939;29;20231;-80
2022/12/26 20:18:56;;;;;;;13.47;12.57;;;7.80;99.90;;;;;;4895279;29;20312;-80
2022/12/26 20:21:23;;;;;;;13.40;12.60;;;7.80;99.90;;;;;;4896105;29;20229;-80
2022/12/26 20:23:50;;;;;;;13.67;12.77;;;7.90;99.90;;;;;;4895716;29;20219;-79
2022/12/26 20:26:19;;;;;;;14.10;13.20;;;7.90;99.90;;;;;;4895149;29;20271;-79
2022/12/26 20:28:48;;;;;;;13.87;12.87;;;7.90;99.90;;;;;;4897636;29;20236;-80
2022/12/26 20:31:19;;;;;;;13.17;12.37;;;7.90;99.90;;;;;;4899897;29;20251;-79
2022/12/26 20:33:48;;;;;;;12.50;11.80;;;8.00;99.90;;;;;;4899554;29;20216;-79
2022/12/26 20:36:16;;;;;;;12.50;11.70;;;8.00;99.90;;;;;;4899321;29;20208;-80
2022/12/26 20:38:44;;;;;;;11.90;11.20;;;8.00;99.90;;;;;;4899077;29;20303;-80
2022/12/26 20:41:36;;;;;;;11.80;11.10;;;8.00;99.90;;;;;;4893747;29;20716;-81
2022/12/26 20:44:07;;;;;;;12.17;11.47;;;8.10;99.90;;;;;;4899272;29;20264;-80
2022/12/26 20:46:35;;;;;;;12.37;11.57;;;8.10;99.90;;;;;;4899542;29;20199;-80
2022/12/26 20:49:03;;;;;;;12.70;11.90;;;8.10;99.90;;;;;;4900303;29;20295;-81
2022/12/26 20:51:33;;;;;;;13.10;12.30;;;8.00;99.90;;;;;;4899455;29;20231;-80
2022/12/26 20:54:00;;;;;;;12.23;11.43;;;8.00;99.90;;;;;;4897075;29;20215;-81
2022/12/26 20:56:27;;;;;;;12.30;11.60;;;7.90;99.90;;;;;;4898923;29;20209;-80
2022/12/26 20:58:55;;;;;;;12.53;11.83;;;7.90;99.90;;;;;;4900230;29;20260;-80
2022/12/26 21:01:26;;;;;;;11.50;10.90;;;7.90;99.90;;;;;;4899457;29;20241;-80
2022/12/26 21:03:55;;;;;;;11.90;11.30;;;7.90;99.90;;;;;;4899182;29;20214;-81
2022/12/26 21:06:24;;;;;;;12.13;11.53;;;7.90;99.90;;;;;;4898687;29;20295;-80
2022/12/26 21:08:52;;;;;;;11.70;11.10;;;7.90;99.90;;;;;;4898687;29;20574;-80
2022/12/26 21:11:22;;;;;;;12.07;11.47;;;7.90;99.90;;;;;;4898897;29;20232;-80
2022/12/26 21:13:50;;;;;;;11.90;11.20;;;7.80;99.90;;;;;;4898724;29;20675;-80
2022/12/26 21:16:19;;;;;;;11.90;11.30;;;7.80;99.90;;;;;;4898433;29;20240;-79
2022/12/26 21:18:48;;;;;;;11.90;11.30;;;7.80;99.90;;;;;;4898528;29;20228;-80
2022/12/26 21:21:18;;;;;;;12.30;11.60;;;7.80;99.90;;;;;;4899003;29;20297;-80
2022/12/26 21:23:45;;;;;;;11.93;11.33;;;7.80;99.90;;;;;;4898784;29;20256;-80
2022/12/26 21:26:12;;;;;;;12.30;11.60;;;7.80;99.90;;;;;;4898543;29;20215;-80
2022/12/26 21:28:42;;;;;;;12.10;11.40;;;7.80;99.90;;;;;;4894247;29;20188;-80
2022/12/26 21:31:11;;;;;;;12.30;11.60;;;7.80;99.90;;;;;;4898986;29;20257;-82
2022/12/26 21:33:38;;;;;;;11.57;10.87;;;7.80;99.90;;;;;;4898445;29;20712;-81
2022/12/26 21:36:10;;;;;;;11.30;10.70;;;7.90;99.90;;;;;;4898461;29;20260;-81
2022/12/26 21:38:37;;;;;;;11.33;10.60;;;7.90;99.90;;;;;;4898881;29;20221;-81
2022/12/26 21:41:06;;;;;;;11.50;10.90;;;7.90;99.90;;;;;;4898222;29;20354;-81
2022/12/26 21:43:33;;;;;;;11.20;10.60;;;7.90;99.90;;;;;;4898192;29;20277;-80
2022/12/26 21:46:00;;;;;;;11.40;10.70;;;7.90;99.90;;;;;;4898616;29;20227;-81
2022/12/26 21:48:27;;;;;;;11.17;10.57;;;7.90;99.90;;;;;;4898681;29;20847;-81
2022/12/26 21:50:54;;;;;;;11.50;10.90;;;7.80;99.90;;;;;;4897805;29;20229;-81
2022/12/26 21:53:22;;;;;;;11.40;10.80;;;7.70;99.90;;;;;;4899375;29;20287;-80
2022/12/26 21:55:48;;;;;;;11.40;10.80;;;7.70;99.90;;;;;;4898213;29;20208;-81
2022/12/26 21:58:14;;;;;;;11.60;10.90;;;7.60;99.90;;;;;;4899598;29;20284;-81
